ENHV

Details ICAO ENHV (HVG)
Name Honningsvaag Valan
Region Norway
Timezone Europe/Oslo (UTC+2.0)
Plans Departing 24
Arriving 26
Stats Elevation 46 ft / 14 m (AMSL)
Location 71.009705° 25.984013°
Runways 1
Magnetic Variation 13.446° E
Sunrise Unknown / Unknown
Sunset Unknown / Unknown
Advertisement - Login to hide

Runways

ID Width Length Bearing (true) Bearing (mag) Surface Threshold Offset Overrun Length
08 98 ft / 30 m 2,887 ft / 880 m 89.49° 76.04° Asphalt 0 ft / 0 m 0 ft / 0 m
26 98 ft / 30 m 2,887 ft / 880 m 269.51° 256.06° Asphalt 0 ft / 0 m 0 ft / 0 m

Approach Navaids

Runway Type Ident Frequency Range Bearing (true) Bearing (mag) Slope Elevation
08 Localiser HV 108.10 MHz 18 nm / 33 km 216.09° 202.64° - 23 ft / 7 m (AMSL)
08 DME HV 108.10 MHz 18 nm / 33 km - - - 23 ft / 7 m (AMSL)

Map

Weather


0- 5 10 15 20 25 30 35+ Temperature / ° C

Clouds and Precipitation
Forecast for 2018-05-23 18:00 UTC. Updated 24 minutes ago

Ground ~20,000 ft ~40,000 ft Winds

METAR

ENHV 231550Z 28019KT 9999 FEW025 BKN037 05/M02 Q1026

TAF

Not found
Warning: Do not use this data for real-world aviation or navigation. No guarantee of current accuracy is given.